KBVO/BVO METAR and TAF weather

Enter ICAO airport designator
Station Type Date Time Source
KBVO METAR 2020/06/05 11:53 UTC NOAA

KBVO 051153Z AUTO 00000KT 10SM CLR 21/20 A2988 RMK AO2 SLP108 T02060200 10256 20189 53022


Station Type Date Time Source
KBVO Decoded METAR 2020/06/05 11:53 UTC NOAA

BARTLESVILLE MUNICIPAL AIRPORT , OK, United States (KBVO) 36-46N 96-01W 210M
Jun 05, 2020 - 07:53 AM EDT / 2020.06.05 1153 UTC
Wind: Calm:0
Visibility: 10 mile(s):0
Sky conditions: clear
Temperature: 69.1 F (20.6 C)
Dew Point: 68.0 F (20.0 C)
Relative Humidity: 96%
Pressure (altimeter): 29.88 in. Hg (1011 hPa)
Pressure tendency: 0.06 inches (2.2 hPa) higher than three hours ago
ob: KBVO 051153Z AUTO 00000KT 10SM CLR 21/20 A2988 RMK AO2 SLP108 T02060200 10256 20189 53022
cycle: 12

Station Type Date Time Source
KBVO TAF 2020/06/05 12:27 UTC NOAA

TAF KBVO 051124Z 0512/0612 20005KT P6SM FEW250
FM052000 18006KT P6SM SCT200
FM060100 18003KT P6SM SKC

Example: see airport list